RYR595 EPMO-LMML
Flight info
| Callsign | RYR595 |
|---|---|
| Flight time | N/A |
| Altitude | 36000 |
| Route | EVINA DCT SKARY DCT KOPRY DCT OBAXU DCT NELDA DCT DIRKA N982 GZO |
| Aircraft | B738/M-SDE2E3FGHIRWXY/LB1 |
Departure
| Time | 2026-04-23 16:27 |
|---|---|
| Airport | Warsaw Modlin Airport (EPMO) |
Arrival
| Time | N/A |
|---|---|
| Airport | Malta International Airport (LMML) |
| Time | Latitude | Longitude | Altitude | Speed | Heading |
|---|---|---|---|---|---|
| 2026-04-23 15:58 | 52.44749 | 20.65269 | 358 ft | 0 kts | 194° |
| 2026-04-23 16:18 | 52.44750 | 20.65270 | 358 ft | 1 kts | 194° |
| 2026-04-23 16:18 | 52.44765 | 20.65275 | 359 ft | 3 kts | 185° |
| 2026-04-23 16:18 | 52.44782 | 20.65274 | 357 ft | 3 kts | 148° |
| 2026-04-23 16:19 | 52.44790 | 20.65261 | 358 ft | 2 kts | 86° |
| 2026-04-23 16:19 | 52.44789 | 20.65255 | 357 ft | 1 kts | 81° |
| 2026-04-23 16:22 | 52.44792 | 20.65282 | 354 ft | 5 kts | 81° |
| 2026-04-23 16:22 | 52.44800 | 20.65359 | 350 ft | 8 kts | 81° |
| 2026-04-23 16:22 | 52.44809 | 20.65462 | 356 ft | 10 kts | 82° |
| 2026-04-23 16:23 | 52.44821 | 20.65587 | 353 ft | 12 kts | 81° |
| 2026-04-23 16:23 | 52.44833 | 20.65734 | 351 ft | 14 kts | 82° |
| 2026-04-23 16:23 | 52.44848 | 20.65900 | 348 ft | 16 kts | 82° |
| 2026-04-23 16:23 | 52.44865 | 20.66091 | 357 ft | 18 kts | 80° |
| 2026-04-23 16:24 | 52.44886 | 20.66303 | 348 ft | 20 kts | 81° |
| 2026-04-23 16:24 | 52.44909 | 20.66535 | 356 ft | 21 kts | 80° |
| 2026-04-23 16:24 | 52.44929 | 20.66751 | 348 ft | 19 kts | 81° |
| 2026-04-23 16:24 | 52.44948 | 20.66957 | 348 ft | 18 kts | 81° |
| 2026-04-23 16:25 | 52.45026 | 20.67066 | 355 ft | 17 kts | 351° |
| 2026-04-23 16:25 | 52.45143 | 20.67036 | 348 ft | 16 kts | 351° |
| 2026-04-23 16:25 | 52.45218 | 20.67007 | 353 ft | 10 kts | 343° |
| 2026-04-23 16:25 | 52.45272 | 20.66946 | 351 ft | 10 kts | 298° |
| 2026-04-23 16:26 | 52.45269 | 20.66778 | 350 ft | 27 kts | 262° |
| 2026-04-23 16:26 | 52.45201 | 20.66059 | 349 ft | 100 kts | 261° |
| 2026-04-23 16:26 | 52.45074 | 20.64574 | 362 ft | 161 kts | 262° |
| 2026-04-23 16:26 | 52.44820 | 20.62678 | 926 ft | 174 kts | 263° |
| 2026-04-23 16:27 | 52.44613 | 20.60681 | 1721 ft | 181 kts | 269° |
| 2026-04-23 16:27 | 52.44436 | 20.58641 | 2674 ft | 175 kts | 269° |
| 2026-04-23 16:27 | 52.44270 | 20.56594 | 3227 ft | 190 kts | 280° |
| 2026-04-23 16:27 | 52.44660 | 20.54614 | 3744 ft | 185 kts | 307° |
| 2026-04-23 16:28 | 52.45521 | 20.53008 | 4075 ft | 198 kts | 327° |
| 2026-04-23 16:28 | 52.46874 | 20.52352 | 4375 ft | 213 kts | 355° |
| 2026-04-23 16:28 | 52.48427 | 20.52213 | 4677 ft | 235 kts | 355° |
| 2026-04-23 16:28 | 52.50087 | 20.52054 | 5365 ft | 241 kts | 355° |
| 2026-04-23 16:29 | 52.51775 | 20.51898 | 6137 ft | 245 kts | 355° |
| 2026-04-23 16:29 | 52.53493 | 20.51742 | 6863 ft | 249 kts | 355° |
| 2026-04-23 16:29 | 52.55228 | 20.51587 | 7655 ft | 250 kts | 355° |
| 2026-04-23 16:29 | 52.56978 | 20.51435 | 8426 ft | 253 kts | 358° |
| 2026-04-23 16:30 | 52.58716 | 20.51993 | 9142 ft | 261 kts | 22° |
| 2026-04-23 16:30 | 52.60160 | 20.53762 | 9925 ft | 269 kts | 45° |
| 2026-04-23 16:30 | 52.61130 | 20.56476 | 10407 ft | 291 kts | 67° |
| 2026-04-23 16:30 | 52.61540 | 20.59903 | 10591 ft | 317 kts | 77° |
| 2026-04-23 16:31 | 52.61844 | 20.63603 | 10916 ft | 333 kts | 77° |
| 2026-04-23 16:31 | 52.62158 | 20.67413 | 11512 ft | 338 kts | 77° |
| 2026-04-23 16:31 | 52.62492 | 20.71256 | 12250 ft | 340 kts | 76° |
| 2026-04-23 16:31 | 52.62828 | 20.75084 | 12985 ft | 342 kts | 77° |
| 2026-04-23 16:32 | 52.63048 | 20.79044 | 13670 ft | 348 kts | 81° |
| 2026-04-23 16:32 | 52.63184 | 20.82966 | 14296 ft | 351 kts | 81° |
| 2026-04-23 16:32 | 52.63322 | 20.87002 | 14916 ft | 353 kts | 81° |
| 2026-04-23 16:32 | 52.63475 | 20.91052 | 15529 ft | 356 kts | 81° |
| 2026-04-23 16:33 | 52.63595 | 20.95142 | 16131 ft | 362 kts | 86° |
| 2026-04-23 16:33 | 52.63027 | 20.99269 | 16693 ft | 380 kts | 109° |
| 2026-04-23 16:33 | 52.61514 | 21.02911 | 17304 ft | 395 kts | 131° |
| 2026-04-23 16:33 | 52.59293 | 21.05659 | 17912 ft | 403 kts | 143° |